Time;durP1;ratioP1;P1;durP2;ratioP2;P2;SDS_P1;SDS_P2;PMS_P1;PMS_P2;Temp;Humidity;BMP_temperature;BMP_pressure;BME280_temperature;BME280_humidity;BME280_pressure;Samples;Min_cycle;Max_cycle;Signal;HPM_P1;HPM_P2
2022/09/11 00:00:43;;;;;;;4.55;1.50;;;16.60;99.90;;;;;;5047044;28;20205;-59
2022/09/11 00:03:09;;;;;;;1.50;1.40;;;16.80;99.90;;;;;;5050421;28;20178;-59
2022/09/11 00:05:40;;;;;;;1.33;1.23;;;16.50;99.90;;;;;;5051636;28;20595;-59
2022/09/11 00:08:07;;;;;;;1.58;1.45;;;16.70;99.90;;;;;;5050552;28;20432;-60
2022/09/11 00:10:36;;;;;;;1.98;1.30;;;17.00;99.90;;;;;;5045839;28;20292;-60
2022/09/11 00:13:03;;;;;;;1.60;1.40;;;16.70;99.90;;;;;;5050894;28;20254;-59
2022/09/11 00:15:28;;;;;;;2.78;1.25;;;16.70;99.90;;;;;;5047528;28;20603;-59
2022/09/11 00:17:55;;;;;;;2.20;1.20;;;16.70;99.90;;;;;;5046533;28;20193;-59
2022/09/11 00:20:21;;;;;;;1.88;1.58;;;16.80;99.90;;;;;;5050610;28;20245;-59
2022/09/11 00:22:48;;;;;;;1.40;1.30;;;16.90;99.90;;;;;;5048965;28;20221;-59
2022/09/11 00:25:13;;;;;;;1.90;1.10;;;16.80;99.90;;;;;;5039989;28;21040;-60
2022/09/11 00:27:39;;;;;;;1.80;1.53;;;16.80;99.90;;;;;;5050257;28;20192;-60
2022/09/11 00:30:05;;;;;;;1.30;1.20;;;16.70;99.90;;;;;;5050149;28;20201;-57
2022/09/11 00:32:32;;;;;;;1.40;1.30;;;16.80;99.90;;;;;;5046716;28;20556;-57
2022/09/11 00:34:57;;;;;;;1.35;1.25;;;16.80;99.90;;;;;;5046541;28;20181;-58
2022/09/11 00:37:23;;;;;;;1.90;1.47;;;16.80;99.90;;;;;;5049481;28;20181;-60
2022/09/11 00:39:49;;;;;;;1.77;1.67;;;16.80;99.90;;;;;;5040352;28;20524;-58
2022/09/11 00:42:15;;;;;;;1.83;1.60;;;16.70;99.90;;;;;;5050067;28;20242;-58
2022/09/11 00:44:40;;;;;;;1.60;1.50;;;16.80;99.90;;;;;;5049177;28;20184;-58
2022/09/11 00:47:08;;;;;;;3.13;1.47;;;16.80;99.90;;;;;;5047278;28;20443;-57
2022/09/11 00:49:43;;;;;;;1.45;1.35;;;16.80;99.90;;;;;;5039881;28;20190;-58
2022/09/11 00:52:14;;;;;;;1.30;1.17;;;17.00;99.90;;;;;;5041231;28;20642;-58
2022/09/11 00:54:45;;;;;;;1.70;1.50;;;16.80;99.90;;;;;;5034035;28;20248;-58
2022/09/11 00:57:11;;;;;;;1.38;1.27;;;16.70;99.90;;;;;;5031722;28;20189;-58
2022/09/11 00:59:40;;;;;;;1.65;1.50;;;16.80;99.90;;;;;;5040701;28;20185;-57
2022/09/11 01:02:11;;;;;;;2.45;1.05;;;16.80;99.90;;;;;;5045830;28;20211;-58
2022/09/11 01:04:36;;;;;;;1.40;1.30;;;17.20;99.90;;;;;;5032653;28;20189;-58
2022/09/11 01:07:03;;;;;;;1.93;1.23;;;16.60;99.90;;;;;;5047114;28;20189;-58
2022/09/11 01:09:30;;;;;;;1.42;1.30;;;16.50;99.90;;;;;;5042825;28;20177;-58
2022/09/11 01:12:02;;;;;;;3.25;1.42;;;16.80;99.90;;;;;;5044419;28;20213;-58
2022/09/11 01:14:37;;;;;;;1.33;1.23;;;16.90;99.90;;;;;;5030059;28;20204;-58
2022/09/11 01:17:19;;;;;;;1.30;1.20;;;16.70;99.90;;;;;;5040258;28;20760;-58
2022/09/11 01:20:04;;;;;;;2.15;1.35;;;16.70;99.90;;;;;;5044068;28;20233;-58
2022/09/11 01:22:49;;;;;;;2.65;1.30;;;16.70;99.90;;;;;;5048510;28;20212;-58
2022/09/11 01:25:37;;;;;;;1.98;1.33;;;16.60;99.90;;;;;;5042696;28;20188;-58
2022/09/11 01:28:10;;;;;;;1.50;1.40;;;16.60;99.90;;;;;;5048851;28;20189;-58
2022/09/11 01:30:40;;;;;;;1.88;1.50;;;16.60;99.90;;;;;;5044604;28;20236;-58
2022/09/11 01:33:29;;;;;;;3.20;1.50;;;16.80;99.90;;;;;;5047771;28;20271;-58
2022/09/11 01:36:04;;;;;;;2.13;1.60;;;16.90;99.90;;;;;;5029741;28;20194;-58
2022/09/11 01:38:51;;;;;;;4.10;1.95;;;16.60;99.90;;;;;;5048975;28;20203;-58
2022/09/11 01:41:35;;;;;;;1.88;1.60;;;16.70;99.90;;;;;;5048131;28;20216;-58
2022/09/11 01:44:35;;;;;;;2.55;1.70;;;16.70;99.90;;;;;;5046953;28;20754;-58
2022/09/11 01:47:04;;;;;;;2.75;1.48;;;16.70;99.90;;;;;;5015432;28;20538;-58
2022/09/11 01:49:35;;;;;;;3.10;1.67;;;16.70;99.90;;;;;;5044079;28;20192;-58
2022/09/11 01:52:06;;;;;;;2.28;1.48;;;16.70;99.90;;;;;;5047931;28;20220;-58
2022/09/11 01:54:41;;;;;;;1.90;1.30;;;16.80;99.90;;;;;;5039409;28;20276;-58
2022/09/11 01:57:17;;;;;;;2.05;1.50;;;16.50;99.90;;;;;;5047364;28;20195;-58
2022/09/11 01:59:56;;;;;;;1.50;1.40;;;17.20;99.90;;;;;;5049278;28;20181;-58
2022/09/11 02:02:29;;;;;;;1.90;1.63;;;16.60;99.90;;;;;;5045016;28;20213;-58
2022/09/11 02:05:03;;;;;;;2.20;1.70;;;16.50;99.90;;;;;;5049075;28;20656;-59
2022/09/11 02:07:47;;;;;;;2.08;1.50;;;16.40;99.90;;;;;;5048280;28;20224;-59
2022/09/11 02:10:24;;;;;;;2.15;1.55;;;16.80;99.90;;;;;;5039244;28;20675;-60
2022/09/11 02:12:57;;;;;;;2.50;1.85;;;16.50;99.90;;;;;;5048132;28;20718;-59
2022/09/11 02:15:27;;;;;;;1.70;1.60;;;16.60;99.90;;;;;;5049412;28;20174;-59
2022/09/11 02:17:58;;;;;;;2.65;1.52;;;16.30;99.90;;;;;;5046083;28;20190;-59
2022/09/11 02:20:24;;;;;;;1.50;1.40;;;16.50;99.90;;;;;;5044191;28;20209;-60
2022/09/11 02:22:51;;;;;;;2.57;1.60;;;16.50;99.90;;;;;;5047991;28;20177;-59
2022/09/11 02:25:17;;;;;;;2.25;1.83;;;16.40;99.90;;;;;;5046115;28;20467;-59
2022/09/11 02:27:43;;;;;;;2.65;1.80;;;16.50;99.90;;;;;;5045108;28;20243;-59
2022/09/11 02:30:09;;;;;;;2.27;1.63;;;16.40;99.90;;;;;;5047087;28;20197;-59
2022/09/11 02:32:38;;;;;;;2.40;2.10;;;16.40;99.90;;;;;;5041947;28;20197;-59
2022/09/11 02:35:05;;;;;;;2.28;1.63;;;16.50;99.90;;;;;;5044471;28;20251;-59
2022/09/11 02:37:58;;;;;;;2.00;1.67;;;16.40;99.90;;;;;;5050235;28;20189;-58
2022/09/11 02:40:56;;;;;;;2.50;1.80;;;16.40;99.90;;;;;;5044381;28;20312;-59
2022/09/11 02:43:30;;;;;;;2.20;2.00;;;16.40;99.90;;;;;;5037469;28;20193;-59
2022/09/11 02:46:16;;;;;;;1.77;1.60;;;16.40;99.90;;;;;;5049843;28;20194;-59
2022/09/11 02:48:59;;;;;;;1.73;1.63;;;16.60;99.90;;;;;;5048838;28;20184;-60
2022/09/11 02:51:38;;;;;;;1.85;1.70;;;16.60;99.90;;;;;;5047289;28;20224;-59
2022/09/11 02:54:17;;;;;;;2.17;1.65;;;16.70;99.90;;;;;;5047798;28;20193;-59
2022/09/11 02:56:55;;;;;;;2.17;1.98;;;16.40;99.90;;;;;;5050824;28;20193;-59
2022/09/11 02:59:26;;;;;;;4.60;1.88;;;16.50;99.90;;;;;;5046137;28;20188;-59
2022/09/11 03:01:54;;;;;;;2.35;1.75;;;16.60;99.90;;;;;;5049836;28;20841;-58
2022/09/11 03:04:21;;;;;;;1.75;1.52;;;16.80;99.90;;;;;;5049681;28;20590;-59
2022/09/11 03:06:48;;;;;;;1.75;1.65;;;16.50;99.90;;;;;;5048849;28;20276;-59
2022/09/11 03:09:15;;;;;;;2.03;1.83;;;16.80;99.90;;;;;;5044694;28;20190;-59
2022/09/11 03:11:42;;;;;;;2.35;2.15;;;16.80;99.90;;;;;;5044149;28;21883;-59
2022/09/11 03:14:07;;;;;;;1.70;1.60;;;16.80;99.90;;;;;;5051008;28;20185;-59
2022/09/11 03:16:34;;;;;;;1.90;1.80;;;16.60;99.90;;;;;;5048438;28;20204;-59
2022/09/11 03:18:59;;;;;;;1.83;1.73;;;16.80;99.90;;;;;;5048713;28;20184;-59
2022/09/11 03:21:25;;;;;;;2.20;1.67;;;16.70;99.90;;;;;;5045079;28;20229;-59
2022/09/11 03:23:51;;;;;;;2.00;1.73;;;16.80;99.90;;;;;;5048319;28;20269;-59
2022/09/11 03:26:16;;;;;;;2.13;1.80;;;17.00;99.90;;;;;;5018903;28;20464;-59
2022/09/11 03:28:43;;;;;;;2.60;1.80;;;16.70;99.90;;;;;;5047138;28;20185;-59
2022/09/11 03:31:09;;;;;;;1.90;1.80;;;16.80;99.90;;;;;;5049850;28;20197;-59
2022/09/11 03:33:35;;;;;;;1.88;1.77;;;16.80;99.90;;;;;;5047324;28;20196;-59
2022/09/11 03:36:01;;;;;;;4.03;2.07;;;16.80;99.90;;;;;;5046457;28;20186;-59
2022/09/11 03:38:27;;;;;;;2.05;1.77;;;16.90;99.90;;;;;;5048895;28;20220;-59
2022/09/11 03:40:53;;;;;;;2.00;1.90;;;16.70;99.90;;;;;;5047584;28;20249;-59
2022/09/11 03:43:20;;;;;;;4.38;1.88;;;16.70;99.90;;;;;;5049882;28;20535;-59
2022/09/11 03:45:50;;;;;;;2.20;2.10;;;17.10;99.90;;;;;;5046794;28;20217;-59
2022/09/11 03:48:17;;;;;;;1.77;1.67;;;16.80;99.90;;;;;;5042558;28;20659;-59
2022/09/11 03:50:44;;;;;;;2.90;2.13;;;16.60;99.90;;;;;;5046069;28;20292;-59
2022/09/11 03:53:10;;;;;;;2.00;1.90;;;16.70;99.90;;;;;;5027854;28;20194;-59
2022/09/11 03:55:36;;;;;;;2.15;2.00;;;16.50;99.90;;;;;;5046204;28;20272;-59
2022/09/11 03:58:02;;;;;;;2.30;2.10;;;16.50;99.90;;;;;;5043415;28;20272;-58
2022/09/11 04:00:27;;;;;;;2.00;1.83;;;16.60;99.90;;;;;;5044550;28;20548;-59
2022/09/11 04:02:54;;;;;;;2.03;1.93;;;16.60;99.90;;;;;;5042679;28;20247;-59
2022/09/11 04:05:23;;;;;;;2.30;2.20;;;16.60;99.90;;;;;;5046866;28;20170;-59
2022/09/11 04:07:49;;;;;;;2.53;2.30;;;16.50;99.90;;;;;;5046364;28;20205;-58
2022/09/11 04:10:14;;;;;;;2.47;2.27;;;16.60;99.90;;;;;;5026976;28;20224;-60
2022/09/11 04:12:40;;;;;;;2.63;2.43;;;16.50;99.90;;;;;;5044774;28;20732;-60
2022/09/11 04:15:07;;;;;;;2.30;2.10;;;16.70;99.90;;;;;;5048126;28;20184;-59
2022/09/11 04:17:32;;;;;;;3.13;2.65;;;16.80;99.90;;;;;;5045890;28;20622;-59
2022/09/11 04:19:58;;;;;;;3.40;2.30;;;16.80;99.90;;;;;;5048295;28;20197;-58
2022/09/11 04:22:23;;;;;;;2.93;2.67;;;16.70;99.90;;;;;;5042755;28;20225;-58
2022/09/11 04:24:49;;;;;;;4.27;2.80;;;16.70;99.90;;;;;;5028471;28;20189;-59
2022/09/11 04:27:15;;;;;;;2.87;2.67;;;16.70;99.90;;;;;;5047325;28;20196;-58
2022/09/11 04:29:41;;;;;;;4.37;2.70;;;16.40;99.90;;;;;;5047988;28;20448;-59
2022/09/11 04:32:07;;;;;;;3.75;2.83;;;16.80;99.90;;;;;;5026944;28;20185;-59
2022/09/11 04:34:32;;;;;;;4.67;2.83;;;16.50;99.90;;;;;;5048027;28;20193;-59
2022/09/11 04:36:58;;;;;;;3.73;3.07;;;16.60;99.90;;;;;;5048671;28;20189;-59
2022/09/11 04:39:24;;;;;;;4.07;2.90;;;16.60;99.90;;;;;;5039919;28;21068;-58
2022/09/11 04:41:50;;;;;;;2.90;2.70;;;16.90;99.90;;;;;;5046507;28;20304;-58
2022/09/11 04:44:15;;;;;;;2.80;2.60;;;16.60;99.90;;;;;;5047800;28;20451;-58
2022/09/11 04:46:41;;;;;;;3.50;3.20;;;16.70;99.90;;;;;;5047200;28;20343;-58
2022/09/11 04:49:08;;;;;;;3.38;3.08;;;16.90;99.90;;;;;;5027101;28;20594;-58
2022/09/11 04:51:35;;;;;;;3.60;3.30;;;16.80;99.90;;;;;;5025879;28;20216;-59
2022/09/11 04:54:02;;;;;;;3.75;3.45;;;16.80;99.90;;;;;;5046669;28;20196;-58
2022/09/11 04:56:31;;;;;;;3.22;3.03;;;16.80;99.90;;;;;;5046490;28;20197;-58
2022/09/11 04:59:12;;;;;;;5.70;3.30;;;17.00;99.90;;;;;;5044708;28;20190;-59
2022/09/11 05:01:38;;;;;;;5.32;3.35;;;16.80;99.90;;;;;;5027251;28;20209;-59
2022/09/11 05:04:05;;;;;;;5.72;4.05;;;17.10;99.90;;;;;;5046623;28;20221;-58
2022/09/11 05:06:31;;;;;;;3.53;3.22;;;16.80;99.90;;;;;;5030036;28;20182;-59
2022/09/11 05:09:03;;;;;;;4.00;3.70;;;16.70;99.90;;;;;;5048378;28;20189;-59
2022/09/11 05:11:29;;;;;;;3.85;3.55;;;16.40;99.90;;;;;;5038557;28;20573;-59
2022/09/11 05:13:57;;;;;;;3.93;3.50;;;16.90;99.90;;;;;;5046768;28;20269;-58
2022/09/11 05:16:23;;;;;;;4.40;4.00;;;17.00;99.90;;;;;;5042067;28;20445;-59
2022/09/11 05:18:51;;;;;;;3.93;3.63;;;16.90;99.90;;;;;;5045103;28;20213;-59
2022/09/11 05:21:17;;;;;;;4.53;4.22;;;16.80;99.90;;;;;;5045760;28;20467;-58
2022/09/11 05:23:46;;;;;;;4.63;4.20;;;17.00;99.90;;;;;;5048018;28;20196;-58
2022/09/11 05:26:18;;;;;;;4.28;3.95;;;17.30;99.90;;;;;;5045549;28;20182;-59
2022/09/11 05:28:44;;;;;;;4.45;3.95;;;17.10;99.90;;;;;;5047068;28;20720;-59
2022/09/11 05:31:12;;;;;;;5.40;3.95;;;17.20;99.90;;;;;;5048800;28;20213;-59
2022/09/11 05:33:38;;;;;;;25.65;23.10;;;17.40;99.90;;;;;;5048174;28;20412;-59
2022/09/11 05:36:05;;;;;;;4.93;3.90;;;17.40;99.90;;;;;;5046696;28;20185;-58
2022/09/11 05:38:32;;;;;;;3.95;3.55;;;17.20;99.90;;;;;;5042118;28;20193;-59
2022/09/11 05:40:58;;;;;;;5.15;4.65;;;17.20;99.90;;;;;;5046139;28;20245;-59
2022/09/11 05:43:24;;;;;;;4.10;3.70;;;17.20;99.90;;;;;;5045756;28;20184;-58
2022/09/11 05:45:55;;;;;;;4.32;3.78;;;17.30;99.90;;;;;;5045934;28;20205;-59
2022/09/11 05:48:21;;;;;;;4.00;3.60;;;17.10;99.90;;;;;;5046846;28;20609;-59
2022/09/11 05:50:55;;;;;;;4.10;3.80;;;17.40;99.90;;;;;;5040893;28;20219;-58
2022/09/11 05:53:22;;;;;;;4.20;3.80;;;17.30;99.90;;;;;;5043265;28;20187;-59
2022/09/11 05:55:50;;;;;;;5.35;4.45;;;17.30;99.90;;;;;;5042809;28;20189;-59
2022/09/11 05:58:17;;;;;;;4.60;4.30;;;17.30;99.90;;;;;;5046303;28;20205;-59
2022/09/11 06:00:47;;;;;;;5.00;4.60;;;17.30;99.90;;;;;;5038642;28;20283;-59
2022/09/11 06:03:15;;;;;;;6.13;4.40;;;17.30;99.90;;;;;;5044196;28;20678;-59
2022/09/11 06:05:41;;;;;;;4.07;3.78;;;17.30;99.90;;;;;;5050091;28;20194;-59
2022/09/11 06:08:08;;;;;;;4.95;4.55;;;17.40;99.90;;;;;;5048191;28;20189;-59
2022/09/11 06:10:35;;;;;;;5.35;4.85;;;17.90;99.90;;;;;;5047444;28;20553;-58
2022/09/11 06:13:01;;;;;;;4.85;4.45;;;17.60;99.90;;;;;;5047792;28;20550;-58
2022/09/11 06:15:28;;;;;;;5.03;4.50;;;17.60;99.90;;;;;;5049908;28;20187;-59
2022/09/11 06:17:54;;;;;;;4.82;4.43;;;17.60;99.90;;;;;;5047781;28;20190;-59
2022/09/11 06:20:20;;;;;;;5.32;4.80;;;17.60;99.90;;;;;;5049955;28;20614;-58
2022/09/11 06:22:45;;;;;;;4.77;4.37;;;17.60;99.90;;;;;;5048622;28;20221;-59
2022/09/11 06:25:11;;;;;;;5.10;4.70;;;17.60;99.90;;;;;;5044393;28;20182;-59
2022/09/11 06:27:37;;;;;;;5.40;4.97;;;17.60;99.90;;;;;;5049578;28;20181;-59
2022/09/11 06:30:03;;;;;;;5.20;4.80;;;17.50;99.90;;;;;;5049110;28;20219;-58
2022/09/11 06:32:29;;;;;;;4.82;4.50;;;17.60;99.90;;;;;;5044216;28;20245;-59
2022/09/11 06:34:54;;;;;;;5.40;5.00;;;17.60;99.90;;;;;;5030612;28;20542;-59
2022/09/11 06:37:20;;;;;;;4.83;4.53;;;17.60;99.90;;;;;;5048967;28;20273;-58
2022/09/11 06:39:46;;;;;;;5.70;5.30;;;17.60;99.90;;;;;;5048284;28;20189;-59
2022/09/11 06:42:11;;;;;;;5.03;4.63;;;17.60;99.90;;;;;;5051065;28;20209;-59
2022/09/11 06:44:37;;;;;;;6.70;5.00;;;17.60;99.90;;;;;;5041660;28;20185;-58
2022/09/11 06:47:03;;;;;;;4.40;4.10;;;17.80;99.90;;;;;;5049034;28;20271;-59
2022/09/11 06:49:28;;;;;;;5.70;5.20;;;17.80;99.90;;;;;;5047184;28;20242;-59
2022/09/11 06:51:54;;;;;;;5.67;5.13;;;18.20;99.90;;;;;;5052289;28;20983;-58
2022/09/11 06:54:20;;;;;;;7.33;5.80;;;17.80;99.90;;;;;;5048921;28;20190;-58
2022/09/11 06:56:45;;;;;;;4.90;4.50;;;17.80;99.90;;;;;;5047586;28;20676;-58
2022/09/11 06:59:13;;;;;;;5.67;5.27;;;18.10;99.90;;;;;;5051895;28;20189;-59
2022/09/11 07:01:38;;;;;;;5.80;5.30;;;18.00;99.90;;;;;;5045442;28;20623;-59
2022/09/11 07:04:04;;;;;;;6.07;5.03;;;18.00;99.90;;;;;;5046441;28;20316;-59
2022/09/11 07:06:30;;;;;;;5.70;5.20;;;18.00;99.90;;;;;;5048947;28;20208;-58
2022/09/11 07:09:01;;;;;;;5.85;5.40;;;18.00;99.90;;;;;;5049738;28;20223;-59
2022/09/11 07:11:33;;;;;;;6.10;5.50;;;18.00;99.90;;;;;;5052074;28;20569;-59
2022/09/11 07:14:00;;;;;;;5.57;5.07;;;18.00;99.90;;;;;;5047445;28;20178;-59
2022/09/11 07:16:26;;;;;;;5.90;5.40;;;18.00;99.90;;;;;;5047084;28;20196;-59
2022/09/11 07:18:51;;;;;;;6.27;5.67;;;18.10;99.90;;;;;;5044844;28;20193;-59
2022/09/11 07:21:22;;;;;;;5.60;5.20;;;18.10;99.90;;;;;;5047424;28;20471;-58
2022/09/11 07:23:53;;;;;;;5.95;5.53;;;18.20;99.90;;;;;;5048709;28;20178;-58
2022/09/11 07:26:20;;;;;;;5.72;5.20;;;18.40;99.90;;;;;;5049070;28;20651;-58
2022/09/11 07:28:49;;;;;;;6.88;6.03;;;18.50;99.90;;;;;;5050158;28;20194;-58
2022/09/11 07:31:17;;;;;;;6.10;5.70;;;18.40;99.90;;;;;;5047942;28;20300;-59
2022/09/11 07:33:45;;;;;;;6.50;5.90;;;18.80;99.90;;;;;;5045216;28;20243;-58
2022/09/11 07:36:29;;;;;;;6.70;6.20;;;18.60;99.90;;;;;;5048367;28;20205;-58
2022/09/11 07:38:56;;;;;;;5.72;5.22;;;18.50;99.90;;;;;;5045770;28;20181;-59
2022/09/11 07:41:23;;;;;;;6.30;5.80;;;18.60;99.90;;;;;;5047851;28;20233;-59
2022/09/11 07:43:54;;;;;;;6.82;5.47;;;18.70;99.90;;;;;;5049201;28;20704;-58
2022/09/11 07:46:20;;;;;;;5.40;5.00;;;18.70;99.90;;;;;;5048724;28;20186;-58
2022/09/11 07:48:46;;;;;;;6.32;5.82;;;18.70;99.90;;;;;;5048093;28;20677;-58
2022/09/11 07:51:13;;;;;;;6.53;5.82;;;18.80;99.90;;;;;;5048177;28;20308;-58
2022/09/11 07:53:42;;;;;;;7.95;6.75;;;18.90;99.90;;;;;;5045877;28;20201;-58
2022/09/11 07:56:11;;;;;;;6.05;5.47;;;18.80;99.90;;;;;;5041441;28;20226;-58
2022/09/11 07:58:38;;;;;;;6.53;6.03;;;18.90;99.90;;;;;;5047071;28;20250;-59
2022/09/11 08:01:06;;;;;;;6.65;6.15;;;18.80;99.90;;;;;;5044120;28;20247;-56
2022/09/11 08:03:33;;;;;;;7.45;6.85;;;18.70;99.90;;;;;;5047108;28;20182;-57
2022/09/11 08:06:05;;;;;;;6.65;6.13;;;18.80;99.90;;;;;;5048350;28;20281;-58
2022/09/11 08:08:31;;;;;;;7.57;6.20;;;18.80;99.90;;;;;;5047659;28;20201;-59
2022/09/11 08:11:05;;;;;;;6.40;5.80;;;18.80;99.90;;;;;;5046738;28;20202;-59
2022/09/11 08:13:32;;;;;;;7.10;6.50;;;18.70;99.90;;;;;;5048653;28;20448;-58
2022/09/11 08:15:58;;;;;;;6.38;5.88;;;19.00;99.90;;;;;;5047967;28;20599;-58
2022/09/11 08:18:24;;;;;;;6.63;6.03;;;19.00;99.90;;;;;;5045800;28;20276;-59
2022/09/11 08:20:49;;;;;;;7.00;6.40;;;19.00;99.90;;;;;;5045478;28;20475;-59
2022/09/11 08:23:15;;;;;;;7.00;6.30;;;19.50;99.90;;;;;;5048268;28;20455;-60
2022/09/11 08:25:41;;;;;;;7.40;6.80;;;19.30;99.90;;;;;;5045974;28;20185;-56
2022/09/11 08:28:07;;;;;;;6.50;5.88;;;19.30;99.90;;;;;;5043979;28;20182;-57
2022/09/11 08:30:37;;;;;;;6.85;6.15;;;19.50;99.90;;;;;;5028470;28;20546;-58
2022/09/11 08:33:04;;;;;;;6.20;5.70;;;19.50;99.90;;;;;;5041420;28;20227;-57
2022/09/11 08:35:32;;;;;;;6.85;6.25;;;19.80;99.90;;;;;;5046891;28;20194;-59
2022/09/11 08:37:58;;;;;;;7.25;6.55;;;20.30;99.90;;;;;;5044489;28;20231;-57
2022/09/11 08:40:24;;;;;;;6.27;5.77;;;20.10;99.90;;;;;;5045918;28;20271;-58
2022/09/11 08:42:51;;;;;;;6.80;6.30;;;20.30;99.90;;;;;;5046254;28;20205;-58
2022/09/11 08:45:19;;;;;;;6.10;5.60;;;20.60;99.90;;;;;;5030592;28;20448;-63
2022/09/11 08:47:51;;;;;;;6.82;6.25;;;20.60;99.90;;;;;;5044017;28;20328;-56
2022/09/11 08:50:19;;;;;;;8.25;7.45;;;20.70;99.90;;;;;;5042158;28;20232;-56
2022/09/11 08:52:45;;;;;;;6.22;5.63;;;20.30;99.90;;;;;;5050800;28;20190;-55
2022/09/11 08:55:13;;;;;;;6.78;6.22;;;20.50;99.90;;;;;;5048138;28;20635;-55
2022/09/11 08:57:53;;;;;;;6.65;6.10;;;20.40;99.90;;;;;;5046663;28;20571;-55
2022/09/11 09:00:20;;;;;;;7.22;6.53;;;20.30;99.90;;;;;;5040563;28;20210;-55
2022/09/11 09:02:55;;;;;;;6.20;5.70;;;20.10;99.90;;;;;;5024677;28;20674;-55
2022/09/11 09:05:44;;;;;;;7.65;6.95;;;20.10;99.90;;;;;;5045332;28;20188;-55
2022/09/11 09:08:29;;;;;;;7.18;5.80;;;20.30;99.90;;;;;;5041182;28;20178;-55
2022/09/11 09:11:27;;;;;;;6.40;5.90;;;20.70;99.90;;;;;;5036071;28;20213;-54
2022/09/11 09:14:21;;;;;;;9.63;5.80;;;20.80;99.90;;;;;;5045508;28;20205;-53
2022/09/11 09:17:07;;;;;;;6.88;6.20;;;20.80;99.90;;;;;;5041957;28;20191;-53
2022/09/11 09:19:46;;;;;;;5.60;5.20;;;20.80;99.80;;;;;;5040708;28;20265;-54
2022/09/11 09:22:38;;;;;;;5.75;5.05;;;20.90;99.30;;;;;;5041958;28;20695;-53
2022/09/11 09:25:10;;;;;;;5.20;4.80;;;20.50;98.70;;;;;;5040343;28;20659;-53
2022/09/11 09:27:47;;;;;;;5.88;5.38;;;21.30;98.80;;;;;;5047750;28;20654;-53
2022/09/11 09:30:23;;;;;;;5.38;4.97;;;21.60;97.50;;;;;;5047353;28;20292;-54
2022/09/11 09:33:37;;;;;;;6.97;5.10;;;21.90;97.30;;;;;;5024890;28;20591;-54
2022/09/11 09:36:27;;;;;;;5.20;4.80;;;21.90;96.70;;;;;;4972093;28;20495;-54
2022/09/11 09:38:54;;;;;;;5.40;5.00;;;22.00;96.40;;;;;;5039445;28;20486;-54
2022/09/11 09:41:44;;;;;;;4.93;4.63;;;22.00;95.40;;;;;;5043114;28;20216;-54
2022/09/11 09:44:45;;;;;;;7.20;5.55;;;22.00;95.00;;;;;;5043035;28;20524;-53
2022/09/11 09:47:12;;;;;;;5.00;4.60;;;21.80;95.30;;;;;;5024261;28;20588;-53
2022/09/11 09:49:39;;;;;;;5.47;4.93;;;21.80;95.50;;;;;;5048048;28;20196;-53
2022/09/11 09:52:21;;;;;;;5.55;5.05;;;21.70;95.80;;;;;;5048216;28;20216;-53
2022/09/11 09:55:00;;;;;;;5.53;5.13;;;21.80;96.10;;;;;;5041250;28;20190;-54
2022/09/11 09:57:35;;;;;;;7.00;5.63;;;21.70;96.40;;;;;;5030041;28;20236;-53
2022/09/11 10:00:10;;;;;;;6.00;5.43;;;21.60;96.80;;;;;;5042486;28;20454;-53
2022/09/11 10:02:42;;;;;;;5.87;5.47;;;21.30;97.00;;;;;;5046527;28;20219;-54
2022/09/11 10:05:23;;;;;;;5.97;5.20;;;21.40;97.10;;;;;;5041242;28;20543;-54
2022/09/11 10:07:52;;;;;;;5.50;5.10;;;21.30;97.00;;;;;;5040838;28;20503;-53
2022/09/11 10:10:25;;;;;;;5.60;5.20;;;20.90;96.40;;;;;;5045783;28;20303;-54
2022/09/11 10:12:56;;;;;;;6.40;5.90;;;21.70;96.10;;;;;;5049899;28;20193;-53
2022/09/11 10:15:24;;;;;;;5.97;5.47;;;21.50;96.00;;;;;;5028303;28;20190;-53
2022/09/11 10:17:50;;;;;;;6.00;5.60;;;21.80;95.50;;;;;;5043196;28;20471;-53
2022/09/11 10:20:22;;;;;;;6.40;5.80;;;21.80;95.20;;;;;;5046276;28;20471;-54
2022/09/11 10:22:50;;;;;;;7.57;6.37;;;22.00;95.30;;;;;;5041791;28;20526;-54
2022/09/11 10:25:26;;;;;;;6.10;5.60;;;22.00;95.30;;;;;;5044400;28;20447;-54
2022/09/11 10:28:16;;;;;;;6.70;6.18;;;21.90;95.50;;;;;;5042480;28;20444;-54
2022/09/11 10:30:47;;;;;;;7.65;6.95;;;21.70;95.70;;;;;;5041284;28;20201;-55
2022/09/11 10:33:22;;;;;;;6.30;5.83;;;21.50;96.50;;;;;;5046249;28;20177;-55
2022/09/11 10:35:55;;;;;;;6.88;6.30;;;21.70;96.60;;;;;;5043538;28;20442;-54
2022/09/11 10:38:43;;;;;;;6.40;5.90;;;21.80;96.60;;;;;;5045706;28;20182;-54
2022/09/11 10:41:11;;;;;;;7.47;6.63;;;21.70;96.70;;;;;;5034865;28;20201;-55
2022/09/11 10:44:00;;;;;;;6.00;5.50;;;21.60;97.50;;;;;;5048512;28;20187;-55
2022/09/11 10:46:36;;;;;;;6.93;6.32;;;22.00;97.00;;;;;;5033130;28;20444;-54
2022/09/11 10:49:04;;;;;;;7.00;6.40;;;22.10;96.40;;;;;;5044285;28;20177;-54
2022/09/11 10:51:33;;;;;;;7.53;5.93;;;22.70;96.70;;;;;;5045324;28;20469;-54
2022/09/11 10:54:23;;;;;;;6.57;6.07;;;22.00;96.70;;;;;;5041406;28;20181;-54
2022/09/11 10:57:05;;;;;;;6.90;6.40;;;22.40;96.30;;;;;;5045145;28;20790;-53
2022/09/11 10:59:54;;;;;;;6.07;5.57;;;22.50;95.90;;;;;;5044607;28;20498;-53
2022/09/11 11:02:30;;;;;;;6.53;6.03;;;22.60;95.60;;;;;;5049132;28;20824;-53
2022/09/11 11:05:00;;;;;;;7.00;6.40;;;23.00;94.90;;;;;;5047072;28;20435;-54
2022/09/11 11:08:19;;;;;;;7.87;5.60;;;22.90;94.80;;;;;;5050853;28;20439;-53
2022/09/11 11:11:01;;;;;;;6.23;5.83;;;23.20;93.50;;;;;;5015210;28;20472;-54
2022/09/11 11:13:51;;;;;;;5.00;4.60;;;23.40;92.90;;;;;;5050380;28;20439;-53
2022/09/11 11:16:20;;;;;;;6.00;5.50;;;23.50;91.50;;;;;;5047142;28;20470;-53
2022/09/11 11:19:05;;;;;;;6.07;5.57;;;23.20;91.70;;;;;;5046475;28;20436;-54
2022/09/11 11:21:36;;;;;;;6.50;5.87;;;23.30;91.70;;;;;;5041190;28;20468;-54
2022/09/11 11:24:39;;;;;;;6.00;5.50;;;23.20;91.80;;;;;;5046383;28;20542;-53
2022/09/11 11:27:35;;;;;;;6.10;5.50;;;23.00;91.90;;;;;;5042444;28;20439;-53
2022/09/11 11:30:17;;;;;;;6.83;5.77;;;23.10;92.70;;;;;;5027047;28;20460;-54
2022/09/11 11:33:07;;;;;;;6.10;5.70;;;22.90;92.90;;;;;;5050196;28;20440;-53
2022/09/11 11:35:51;;;;;;;6.40;5.93;;;22.90;93.60;;;;;;5046913;28;20967;-53
2022/09/11 11:38:30;;;;;;;6.03;5.63;;;22.80;94.30;;;;;;5018385;28;20810;-53
2022/09/11 11:41:02;;;;;;;6.30;5.80;;;22.70;94.10;;;;;;5045912;28;20592;-53
2022/09/11 11:43:33;;;;;;;6.60;6.10;;;22.60;94.50;;;;;;5045939;28;20523;-53
2022/09/11 11:46:11;;;;;;;7.07;6.37;;;22.80;94.10;;;;;;5032358;28;20455;-53
2022/09/11 11:49:38;;;;;;;5.90;5.40;;;22.60;94.20;;;;;;5044870;28;20443;-53
2022/09/11 11:52:18;;;;;;;6.73;6.13;;;22.60;93.80;;;;;;4936288;29;20472;-54
2022/09/11 11:55:22;;;;;;;6.37;5.77;;;22.70;93.40;;;;;;5035351;28;20439;-54
2022/09/11 11:58:04;;;;;;;5.67;5.20;;;23.10;92.00;;;;;;5045211;28;20462;-53
2022/09/11 12:00:37;;;;;;;5.63;5.13;;;23.00;91.80;;;;;;5044804;28;20570;-55
2022/09/11 12:03:14;;;;;;;6.40;5.90;;;23.20;92.00;;;;;;5050028;28;20513;-53
2022/09/11 12:05:40;;;;;;;6.23;5.83;;;22.90;91.90;;;;;;5046482;28;20846;-53
2022/09/11 12:08:14;;;;;;;5.80;5.40;;;22.40;92.30;;;;;;5047588;28;20432;-53
2022/09/11 12:10:44;;;;;;;6.43;5.80;;;22.00;92.30;;;;;;5047640;28;20292;-53
2022/09/11 12:13:19;;;;;;;5.87;5.37;;;22.20;92.80;;;;;;5040978;28;20488;-54
2022/09/11 12:16:18;;;;;;;6.00;5.50;;;22.60;92.10;;;;;;5048766;28;20443;-54
2022/09/11 12:19:11;;;;;;;5.13;4.73;;;22.90;91.60;;;;;;5004798;28;20440;-54
2022/09/11 12:21:39;;;;;;;5.10;4.70;;;23.40;91.10;;;;;;5048130;28;20476;-60
2022/09/11 12:24:05;;;;;;;4.80;4.47;;;23.60;89.80;;;;;;5042743;28;20449;-62
2022/09/11 12:26:31;;;;;;;4.80;4.40;;;23.80;87.90;;;;;;5024237;28;20451;-61
2022/09/11 12:29:11;;;;;;;5.73;4.43;;;24.10;87.30;;;;;;5044189;28;20225;-61
2022/09/11 12:31:49;;;;;;;4.80;4.50;;;24.10;86.50;;;;;;5047295;28;20485;-61
2022/09/11 12:34:25;;;;;;;5.20;4.80;;;24.10;86.80;;;;;;5048368;28;20447;-62
2022/09/11 12:37:02;;;;;;;5.17;4.73;;;24.00;87.30;;;;;;5039850;28;20448;-63
2022/09/11 12:39:38;;;;;;;5.40;5.00;;;24.10;87.80;;;;;;5040786;28;20449;-62
2022/09/11 12:42:32;;;;;;;6.33;5.20;;;23.90;88.70;;;;;;5048482;28;20467;-60
2022/09/11 12:44:58;;;;;;;5.67;5.27;;;23.90;89.40;;;;;;5042975;28;20932;-56
2022/09/11 12:47:38;;;;;;;6.57;5.97;;;23.50;90.90;;;;;;5046771;28;20444;-55
2022/09/11 12:50:03;;;;;;;7.00;6.30;;;23.30;91.70;;;;;;5045218;28;20791;-57
2022/09/11 12:52:38;;;;;;;6.47;5.97;;;22.90;91.80;;;;;;5047398;28;20444;-56
2022/09/11 12:55:21;;;;;;;6.40;5.83;;;22.90;92.10;;;;;;5030354;28;20670;-57
2022/09/11 12:57:50;;;;;;;7.43;6.83;;;22.90;92.30;;;;;;5026144;28;20466;-56
2022/09/11 13:00:36;;;;;;;7.00;6.50;;;22.90;92.70;;;;;;5046650;28;20471;-57
2022/09/11 13:03:03;;;;;;;6.23;5.53;;;22.70;93.20;;;;;;5041023;28;20474;-57
2022/09/11 13:05:36;;;;;;;6.40;5.80;;;22.90;92.90;;;;;;5045600;28;20466;-55
2022/09/11 13:08:07;;;;;;;6.60;5.90;;;23.00;92.50;;;;;;5029585;28;21010;-56
2022/09/11 13:10:36;;;;;;;6.43;5.83;;;23.00;92.70;;;;;;5043723;28;20585;-55
2022/09/11 13:13:06;;;;;;;5.87;5.37;;;23.00;92.90;;;;;;5046788;28;20436;-56